createdAt,value
2023-01-28T00:01:41.272Z,97.11
2023-01-28T00:04:09.209Z,97.13
2023-01-28T00:06:37.773Z,97.11
2023-01-28T00:09:05.577Z,96.96
2023-01-28T00:11:33.750Z,97.14
2023-01-28T00:14:01.579Z,97.30
2023-01-28T00:16:30.331Z,97.35
2023-01-28T00:18:58.300Z,97.55
2023-01-28T00:21:26.526Z,97.25
2023-01-28T00:23:55.608Z,97.08
2023-01-28T00:26:25.329Z,97.00
2023-01-28T00:28:53.306Z,97.00
2023-01-28T00:31:24.637Z,97.09
2023-01-28T00:33:54.273Z,96.97
2023-01-28T00:36:23.944Z,97.15
2023-01-28T00:38:54.482Z,97.28
2023-01-28T00:41:24.601Z,97.02
2023-01-28T00:43:53.338Z,96.96
2023-01-28T00:46:22.879Z,97.13
2023-01-28T00:48:51.085Z,97.25
2023-01-28T00:51:22.793Z,97.25
2023-01-28T00:53:50.755Z,97.21
2023-01-28T00:56:19.688Z,97.28
2023-01-28T00:58:47.866Z,97.41
2023-01-28T01:01:23.756Z,97.47
2023-01-28T01:03:57.728Z,97.43
2023-01-28T01:06:25.830Z,97.52
2023-01-28T01:08:53.661Z,97.67
2023-01-28T01:11:21.466Z,97.65
2023-01-28T01:13:55.208Z,97.50
2023-01-28T01:16:30.069Z,97.70
2023-01-28T01:18:59.254Z,97.85
2023-01-28T01:21:29.383Z,97.87
2023-01-28T01:23:57.660Z,97.84
2023-01-28T01:26:27.769Z,97.66
2023-01-28T01:28:58.405Z,97.54
2023-01-28T01:31:26.280Z,97.64
2023-01-28T01:33:54.183Z,97.45
2023-01-28T01:36:23.661Z,97.61
2023-01-28T01:38:55.619Z,97.74
2023-01-28T01:41:32.419Z,97.80
2023-01-28T01:44:02.561Z,97.78
2023-01-28T01:46:43.869Z,97.81
2023-01-28T01:49:27.363Z,97.68
2023-01-28T01:52:03.717Z,97.81
2023-01-28T01:54:32.443Z,98.02
2023-01-28T01:57:02.840Z,98.34
2023-01-28T01:59:33.523Z,98.33
2023-01-28T02:02:05.191Z,98.42
2023-01-28T02:04:37.987Z,98.43
2023-01-28T02:07:08.484Z,98.28
2023-01-28T02:09:38.551Z,98.28
2023-01-28T02:12:10.329Z,98.08
2023-01-28T02:14:53.231Z,97.98
2023-01-28T02:17:22.117Z,97.98
2023-01-28T02:19:56.240Z,97.91
2023-01-28T02:22:43.112Z,97.64
2023-01-28T02:25:55.513Z,97.71
2023-01-28T02:28:32.914Z,97.88
2023-01-28T02:31:13.644Z,98.00
2023-01-28T02:33:50.511Z,98.12
2023-01-28T02:36:32.376Z,98.29
2023-01-28T02:39:06.869Z,98.49
2023-01-28T02:41:42.679Z,98.49
2023-01-28T02:44:10.576Z,98.75
2023-01-28T02:46:56.919Z,98.58
2023-01-28T02:49:53.318Z,98.49
2023-01-28T02:53:09.616Z,98.22
2023-01-28T02:55:57.020Z,98.22
2023-01-28T02:58:47.899Z,98.25
2023-01-28T03:01:41.743Z,98.19
2023-01-28T03:04:12.332Z,98.08
2023-01-28T03:06:45.641Z,98.15
2023-01-28T03:09:25.678Z,98.16
2023-01-28T03:12:26.405Z,98.18
2023-01-28T03:15:19.190Z,98.26
2023-01-28T03:18:32.019Z,98.32
2023-01-28T03:21:28.227Z,98.35
2023-01-28T03:24:36.219Z,98.56
2023-01-28T03:27:38.315Z,98.57
2023-01-28T03:30:33.704Z,98.63
2023-01-28T03:33:25.418Z,98.72
2023-01-28T03:36:12.143Z,98.50
2023-01-28T03:38:43.018Z,98.34
2023-01-28T03:41:12.873Z,98.45
2023-01-28T03:43:41.809Z,98.53
2023-01-28T03:46:09.809Z,98.42
2023-01-28T03:48:38.121Z,98.37
2023-01-28T03:51:06.960Z,98.05
2023-01-28T03:53:34.799Z,98.16
2023-01-28T03:56:02.624Z,98.29
2023-01-28T03:58:49.318Z,98.41
2023-01-28T04:01:17.154Z,98.21
2023-01-28T04:03:45.096Z,98.01
2023-01-28T04:06:16.465Z,98.01
2023-01-28T04:08:54.501Z,98.07
2023-01-28T04:11:32.735Z,98.18
2023-01-28T04:14:03.498Z,98.20
2023-01-28T04:16:58.094Z,98.19
2023-01-28T04:19:27.396Z,98.11
2023-01-28T04:21:56.773Z,98.19
2023-01-28T04:24:25.411Z,98.32
2023-01-28T04:26:55.514Z,98.29
2023-01-28T04:29:24.194Z,98.24
2023-01-28T04:31:53.725Z,97.94
2023-01-28T04:34:36.748Z,97.92
2023-01-28T04:37:33.923Z,97.87
2023-01-28T04:40:11.957Z,98.13
2023-01-28T04:42:53.969Z,98.11
2023-01-28T04:45:31.115Z,98.18
2023-01-28T04:48:19.263Z,98.23
2023-01-28T04:50:57.009Z,98.23
2023-01-28T04:53:48.020Z,98.31
2023-01-28T04:56:28.015Z,98.24
2023-01-28T04:58:56.479Z,98.31
2023-01-28T05:01:25.188Z,98.32
2023-01-28T05:03:53.449Z,98.41
2023-01-28T05:06:25.343Z,98.37
2023-01-28T05:08:58.352Z,98.28
2023-01-28T05:11:26.377Z,98.28
2023-01-28T05:13:59.144Z,98.21
2023-01-28T05:16:34.320Z,98.01
2023-01-28T05:19:03.700Z,98.09
2023-01-28T05:21:36.745Z,98.14
2023-01-28T05:24:09.054Z,98.07
2023-01-28T05:26:37.354Z,97.99
2023-01-28T05:29:05.324Z,97.87
2023-01-28T05:31:34.713Z,98.02
2023-01-28T05:34:02.559Z,98.04
2023-01-28T05:36:30.509Z,97.93
2023-01-28T05:38:59.941Z,98.01
2023-01-28T05:41:27.753Z,97.99
2023-01-28T05:44:00.435Z,98.06
2023-01-28T05:46:36.858Z,98.20
2023-01-28T05:49:13.479Z,98.46
2023-01-28T05:52:01.464Z,98.51
2023-01-28T05:54:31.290Z,98.39
2023-01-28T05:56:59.123Z,98.23
2023-01-28T05:59:27.018Z,98.24
2023-01-28T06:01:57.640Z,98.09
2023-01-28T06:04:25.497Z,97.93
2023-01-28T06:06:53.649Z,98.02
2023-01-28T06:09:21.731Z,97.98
2023-01-28T06:11:51.589Z,98.00
2023-01-28T06:14:19.701Z,98.15
2023-01-28T06:17:06.214Z,98.14
2023-01-28T06:19:39.284Z,98.08
2023-01-28T06:22:08.655Z,98.05
2023-01-28T06:24:36.520Z,97.99
2023-01-28T06:27:04.617Z,97.90
2023-01-28T06:29:32.593Z,98.02
2023-01-28T06:32:00.476Z,98.04
2023-01-28T06:34:28.477Z,97.94
2023-01-28T06:36:56.323Z,97.86
2023-01-28T06:39:24.257Z,97.79
2023-01-28T06:41:52.181Z,97.93
2023-01-28T06:44:20.156Z,97.83
2023-01-28T06:46:47.928Z,97.67
2023-01-28T06:49:15.733Z,97.71
2023-01-28T06:51:43.550Z,97.82
2023-01-28T06:54:11.420Z,97.77
2023-01-28T06:56:39.416Z,97.89
2023-01-28T06:59:07.309Z,97.96
2023-01-28T07:01:35.552Z,97.93
2023-01-28T07:04:04.112Z,97.87
2023-01-28T07:06:31.937Z,97.96
2023-01-28T07:09:00.100Z,98.01
2023-01-28T07:11:27.991Z,97.97
2023-01-28T07:13:55.860Z,98.08
2023-01-28T07:16:23.685Z,97.93
2023-01-28T07:18:51.566Z,97.86
2023-01-28T07:21:19.380Z,97.85
2023-01-28T07:23:47.249Z,97.80
2023-01-28T07:26:15.638Z,97.81
2023-01-28T07:28:43.526Z,97.87
2023-01-28T07:31:11.611Z,97.92
2023-01-28T07:33:39.493Z,98.18
2023-01-28T07:36:07.707Z,98.22
2023-01-28T07:38:35.501Z,98.10
2023-01-28T07:41:03.320Z,98.30
2023-01-28T07:43:31.809Z,98.24
2023-01-28T07:46:02.621Z,98.20
2023-01-28T07:48:30.978Z,98.12
2023-01-28T07:51:00.128Z,98.22
2023-01-28T07:53:27.960Z,97.89
2023-01-28T07:56:00.823Z,97.68
2023-01-28T07:58:28.697Z,97.67
2023-01-28T08:00:59.207Z,97.41
2023-01-28T08:03:28.317Z,97.33
2023-01-28T08:05:56.882Z,97.44
2023-01-28T08:08:27.202Z,97.41
2023-01-28T08:10:55.115Z,97.56
2023-01-28T08:13:22.887Z,97.82
2023-01-28T08:15:56.350Z,97.72
2023-01-28T08:18:24.255Z,97.77
2023-01-28T08:20:56.187Z,97.74
2023-01-28T08:23:26.821Z,97.58
2023-01-28T08:25:55.057Z,97.57
2023-01-28T08:28:22.995Z,97.50
2023-01-28T08:30:50.909Z,97.50
2023-01-28T08:33:20.188Z,97.55
2023-01-28T08:35:48.010Z,97.46
2023-01-28T08:38:17.656Z,97.01
2023-01-28T08:40:45.738Z,96.92
2023-01-28T08:43:13.720Z,96.78
2023-01-28T08:45:41.716Z,96.78
2023-01-28T08:48:15.124Z,96.69
2023-01-28T08:50:43.559Z,96.58
2023-01-28T08:53:17.503Z,96.68
2023-01-28T08:55:46.704Z,96.63
2023-01-28T08:58:16.743Z,96.72
2023-01-28T09:00:45.260Z,96.64
2023-01-28T09:03:13.238Z,96.47
2023-01-28T09:05:41.152Z,96.46
2023-01-28T09:08:14.149Z,96.53
2023-01-28T09:10:42.551Z,96.71
2023-01-28T09:13:15.900Z,96.67
2023-01-28T09:15:44.260Z,96.56
2023-01-28T09:18:12.193Z,96.50
2023-01-28T09:20:40.387Z,96.62
2023-01-28T09:23:08.578Z,96.83
2023-01-28T09:25:36.787Z,96.85
2023-01-28T09:28:05.727Z,96.49
2023-01-28T09:30:37.295Z,96.58
2023-01-28T09:33:06.370Z,96.35
2023-01-28T09:35:34.592Z,96.46
2023-01-28T09:38:02.529Z,96.56
2023-01-28T09:40:35.770Z,96.52
2023-01-28T09:43:21.529Z,96.46
2023-01-28T09:45:50.960Z,96.52
2023-01-28T09:48:24.863Z,96.55
2023-01-28T09:50:54.838Z,96.63
2023-01-28T09:53:31.265Z,96.41
2023-01-28T09:56:02.026Z,96.43
2023-01-28T09:58:29.893Z,96.43
2023-01-28T10:01:05.007Z,96.47
2023-01-28T10:03:51.403Z,96.48
2023-01-28T10:06:40.813Z,96.67
2023-01-28T10:09:23.840Z,96.64
2023-01-28T10:12:26.359Z,96.56
2023-01-28T10:15:31.753Z,96.60
2023-01-28T10:18:17.279Z,96.57
2023-01-28T10:21:01.226Z,96.63
2023-01-28T10:24:02.079Z,96.64
2023-01-28T10:26:40.222Z,96.54
2023-01-28T10:29:25.699Z,96.41
2023-01-28T10:32:05.881Z,96.36
2023-01-28T10:34:33.962Z,96.60
2023-01-28T10:37:01.801Z,97.00
2023-01-28T10:39:30.150Z,96.73
2023-01-28T10:41:58.974Z,96.64
2023-01-28T10:44:37.907Z,96.46
2023-01-28T10:47:16.245Z,96.27
2023-01-28T10:49:49.870Z,96.05
2023-01-28T10:52:18.569Z,96.27
2023-01-28T10:54:46.606Z,96.40
2023-01-28T10:57:18.479Z,96.47
2023-01-28T10:59:46.412Z,96.34
2023-01-28T11:02:33.146Z,96.12
2023-01-28T11:05:05.979Z,96.16
2023-01-28T11:07:34.159Z,96.22
2023-01-28T11:10:02.299Z,96.43
2023-01-28T11:12:31.423Z,96.42
2023-01-28T11:15:05.239Z,96.34
2023-01-28T11:17:39.220Z,97.92
2023-01-28T11:20:21.143Z,99.11
2023-01-28T11:22:50.342Z,98.97
2023-01-28T11:25:28.364Z,97.93
2023-01-28T11:27:58.039Z,98.75
2023-01-28T11:30:33.969Z,96.58
2023-01-28T11:33:10.927Z,95.70
2023-01-28T11:35:38.855Z,95.88
2023-01-28T11:38:23.031Z,95.79
2023-01-28T11:40:52.924Z,95.77
2023-01-28T11:43:23.245Z,96.19
2023-01-28T11:46:13.022Z,96.46
2023-01-28T11:48:56.708Z,96.33
2023-01-28T11:51:49.153Z,95.70
2023-01-28T11:54:16.948Z,95.50
2023-01-28T11:56:59.872Z,95.70
2023-01-28T12:00:08.907Z,95.54
2023-01-28T12:02:48.883Z,95.47
2023-01-28T12:05:44.905Z,95.23
2023-01-28T12:08:23.229Z,95.38
2023-01-28T12:11:55.113Z,95.53
2023-01-28T12:14:22.924Z,96.13
2023-01-28T12:17:16.931Z,96.26
2023-01-28T12:20:00.225Z,96.39
2023-01-28T12:23:08.870Z,95.52
2023-01-28T12:25:57.802Z,94.81
2023-01-28T12:28:33.427Z,94.23
2023-01-28T12:31:20.103Z,94.47
2023-01-28T12:34:19.076Z,94.95
2023-01-28T12:37:01.851Z,95.01
2023-01-28T12:39:52.737Z,94.93
2023-01-28T12:42:35.780Z,94.42
2023-01-28T12:45:40.820Z,95.07
2023-01-28T12:48:18.170Z,95.01
2023-01-28T12:50:54.520Z,94.96
2023-01-28T12:53:30.379Z,94.67
2023-01-28T12:56:30.658Z,94.53
2023-01-28T12:59:06.040Z,94.36
2023-01-28T13:01:57.621Z,94.20
2023-01-28T13:04:40.007Z,94.29
2023-01-28T13:07:28.911Z,94.18
2023-01-28T13:10:19.819Z,93.75
2023-01-28T13:12:48.422Z,93.76
2023-01-28T13:15:18.375Z,94.01
2023-01-28T13:18:01.004Z,94.27
2023-01-28T13:20:45.839Z,94.15
2023-01-28T13:23:36.193Z,93.92
2023-01-28T13:26:10.388Z,93.64
2023-01-28T13:28:38.593Z,93.55
2023-01-28T13:31:17.559Z,93.72
2023-01-28T13:34:01.962Z,93.83
2023-01-28T13:36:45.670Z,94.05
2023-01-28T13:39:14.086Z,94.27
2023-01-28T13:41:51.594Z,93.75
2023-01-28T13:44:25.534Z,93.79
2023-01-28T13:47:14.899Z,93.67
2023-01-28T13:49:47.377Z,93.35
2023-01-28T13:52:20.392Z,93.38
2023-01-28T13:54:55.029Z,93.41
2023-01-28T13:58:07.518Z,93.28
2023-01-28T14:00:56.799Z,93.31
2023-01-28T14:03:43.341Z,93.38
2023-01-28T14:06:47.052Z,93.29
2023-01-28T14:09:23.927Z,93.13
2023-01-28T14:12:50.259Z,93.21
2023-01-28T14:15:20.673Z,93.11
2023-01-28T14:17:53.793Z,92.72
2023-01-28T14:20:37.629Z,91.91
2023-01-28T14:23:14.344Z,91.70
2023-01-28T14:26:05.823Z,91.79
2023-01-28T14:28:46.022Z,92.23
2023-01-28T14:31:35.961Z,92.11
2023-01-28T14:34:11.303Z,92.10
2023-01-28T14:36:45.450Z,92.19
2023-01-28T14:39:32.037Z,91.74
2023-01-28T14:42:02.559Z,92.17
2023-01-28T14:44:34.586Z,92.27
2023-01-28T14:47:43.065Z,92.16
2023-01-28T14:50:17.049Z,92.61
2023-01-28T14:53:00.527Z,92.87
2023-01-28T14:55:28.283Z,92.97
2023-01-28T14:58:00.995Z,92.84
2023-01-28T15:00:32.628Z,92.14
2023-01-28T15:03:01.813Z,91.49
2023-01-28T15:05:31.746Z,90.86
2023-01-28T15:07:59.613Z,90.97
2023-01-28T15:10:33.094Z,91.06
2023-01-28T15:13:12.567Z,90.92
2023-01-28T15:15:41.785Z,91.08
2023-01-28T15:18:13.967Z,91.10
2023-01-28T15:20:47.315Z,90.62
2023-01-28T15:23:18.091Z,90.86
2023-01-28T15:25:46.538Z,90.93
2023-01-28T15:28:37.047Z,90.81
2023-01-28T15:31:05.618Z,90.40
2023-01-28T15:33:33.671Z,90.15
2023-01-28T15:36:01.822Z,90.09
2023-01-28T15:38:29.744Z,89.54
2023-01-28T15:41:02.458Z,89.31
2023-01-28T15:43:33.733Z,89.27
2023-01-28T15:46:01.952Z,89.49
2023-01-28T15:48:33.808Z,89.78
2023-01-28T15:51:08.493Z,89.68
2023-01-28T15:53:43.347Z,89.43
2023-01-28T15:56:15.805Z,89.00
2023-01-28T15:58:44.110Z,88.44
2023-01-28T16:01:16.600Z,88.19
2023-01-28T16:03:46.414Z,88.40
2023-01-28T16:06:22.090Z,88.50
2023-01-28T16:08:58.987Z,88.39
2023-01-28T16:11:38.503Z,88.44
2023-01-28T16:14:06.349Z,88.91
2023-01-28T16:16:37.066Z,89.08
2023-01-28T16:19:07.187Z,88.96
2023-01-28T16:21:38.502Z,88.89
2023-01-28T16:24:28.352Z,88.94
2023-01-28T16:27:20.133Z,88.81
2023-01-28T16:29:47.943Z,88.61
2023-01-28T16:32:35.421Z,88.76
2023-01-28T16:35:12.099Z,88.73
2023-01-28T16:37:41.710Z,88.48
2023-01-28T16:40:12.559Z,88.55
2023-01-28T16:42:40.601Z,88.65
2023-01-28T16:45:16.486Z,89.02
2023-01-28T16:47:44.923Z,89.25
2023-01-28T16:50:14.443Z,89.35
2023-01-28T16:52:44.399Z,89.23
2023-01-28T16:55:14.592Z,88.44
2023-01-28T16:57:44.367Z,87.94
2023-01-28T17:00:18.403Z,88.07
2023-01-28T17:02:46.783Z,88.39
2023-01-28T17:05:17.842Z,88.73
2023-01-28T17:07:49.641Z,88.76
2023-01-28T17:10:17.802Z,88.65
2023-01-28T17:12:48.132Z,88.59
2023-01-28T17:15:16.276Z,88.39
2023-01-28T17:17:48.194Z,88.22
2023-01-28T17:20:16.594Z,88.04
2023-01-28T17:22:44.858Z,88.25
2023-01-28T17:25:13.080Z,88.35
2023-01-28T17:27:40.967Z,88.57
2023-01-28T17:30:09.786Z,88.38
2023-01-28T17:32:37.682Z,88.41
2023-01-28T17:35:06.277Z,88.20
2023-01-28T17:37:34.103Z,87.74
2023-01-28T17:40:03.067Z,87.77
2023-01-28T17:42:31.175Z,87.86
2023-01-28T17:45:03.063Z,87.75
2023-01-28T17:47:31.439Z,87.73
2023-01-28T17:50:00.575Z,87.88
2023-01-28T17:52:29.672Z,87.57
2023-01-28T17:54:57.586Z,87.51
2023-01-28T17:57:25.851Z,87.82
2023-01-28T17:59:53.640Z,87.86
2023-01-28T18:02:21.510Z,87.81
2023-01-28T18:04:49.422Z,87.74
2023-01-28T18:07:17.200Z,87.70
2023-01-28T18:09:47.889Z,87.49
2023-01-28T18:12:16.304Z,87.65
2023-01-28T18:14:44.183Z,87.49
2023-01-28T18:17:12.314Z,87.25
2023-01-28T18:19:40.222Z,87.53
2023-01-28T18:22:08.353Z,87.65
2023-01-28T18:24:36.361Z,87.57
2023-01-28T18:27:04.284Z,87.65
2023-01-28T18:29:32.268Z,87.78
2023-01-28T18:32:01.360Z,87.81
2023-01-28T18:34:31.633Z,87.77
2023-01-28T18:36:59.673Z,87.74
2023-01-28T18:39:30.273Z,87.84
2023-01-28T18:41:59.180Z,87.74
2023-01-28T18:44:30.173Z,87.73
2023-01-28T18:46:58.570Z,87.54
2023-01-28T18:49:26.443Z,87.35
2023-01-28T18:51:55.480Z,87.50
2023-01-28T18:54:23.885Z,87.48
2023-01-28T18:56:51.902Z,87.21
2023-01-28T18:59:19.904Z,87.06
2023-01-28T19:01:47.976Z,86.92
2023-01-28T19:04:16.429Z,86.98
2023-01-28T19:06:45.087Z,87.23
2023-01-28T19:09:15.020Z,87.47
2023-01-28T19:11:43.268Z,87.30
2023-01-28T19:14:15.062Z,87.41
2023-01-28T19:16:43.742Z,87.40
2023-01-28T19:19:12.205Z,87.44
2023-01-28T19:21:40.256Z,87.51
2023-01-28T19:24:09.904Z,87.45
2023-01-28T19:26:38.576Z,87.19
2023-01-28T19:29:09.384Z,87.37
2023-01-28T19:31:38.495Z,87.57
2023-01-28T19:34:07.097Z,87.53
2023-01-28T19:36:35.379Z,87.23
2023-01-28T19:39:06.949Z,87.30
2023-01-28T19:41:36.532Z,87.63
2023-01-28T19:44:05.017Z,87.46
2023-01-28T19:46:34.528Z,87.27
2023-01-28T19:49:03.971Z,87.30
2023-01-28T19:51:32.119Z,87.50
2023-01-28T19:53:59.940Z,87.53
2023-01-28T19:56:29.869Z,87.69
2023-01-28T19:58:57.724Z,87.50
2023-01-28T20:01:29.869Z,87.52
2023-01-28T20:04:00.038Z,87.68
2023-01-28T20:06:30.599Z,87.45
2023-01-28T20:09:04.468Z,87.59
2023-01-28T20:11:32.393Z,87.60
2023-01-28T20:14:00.839Z,87.71
2023-01-28T20:16:31.792Z,87.60
2023-01-28T20:19:06.867Z,87.84
2023-01-28T20:21:35.703Z,87.98
2023-01-28T20:24:04.810Z,87.96
2023-01-28T20:26:37.405Z,87.88
2023-01-28T20:29:11.184Z,88.01
2023-01-28T20:31:41.172Z,87.93
2023-01-28T20:34:14.862Z,87.87
2023-01-28T20:36:42.640Z,87.82
2023-01-28T20:39:11.810Z,87.83
2023-01-28T20:41:39.760Z,87.62
2023-01-28T20:44:07.730Z,87.61
2023-01-28T20:46:37.230Z,87.54
2023-01-28T20:49:08.120Z,87.37
2023-01-28T20:51:36.576Z,87.41
2023-01-28T20:54:04.414Z,87.58
2023-01-28T20:56:32.633Z,87.55
2023-01-28T20:59:03.117Z,87.66
2023-01-28T21:01:34.519Z,87.57
2023-01-28T21:04:04.327Z,87.63
2023-01-28T21:06:32.949Z,87.41
2023-01-28T21:09:01.069Z,87.45
2023-01-28T21:11:29.643Z,87.13
2023-01-28T21:13:58.148Z,87.14
2023-01-28T21:16:26.131Z,87.11
2023-01-28T21:18:54.115Z,86.75
2023-01-28T21:21:25.671Z,86.45
2023-01-28T21:23:57.967Z,86.33
2023-01-28T21:26:26.805Z,86.21
2023-01-28T21:28:56.216Z,86.35
2023-01-28T21:31:26.516Z,86.39
2023-01-28T21:33:58.112Z,86.27
2023-01-28T21:36:26.816Z,86.26
2023-01-28T21:38:57.220Z,86.30
2023-01-28T21:41:25.893Z,86.38
2023-01-28T21:43:55.148Z,86.44
2023-01-28T21:46:32.235Z,86.44
2023-01-28T21:49:03.221Z,86.10
2023-01-28T21:51:46.075Z,86.21
2023-01-28T21:54:19.410Z,86.09
2023-01-28T21:56:49.237Z,86.10
2023-01-28T21:59:30.617Z,86.01
2023-01-28T22:02:10.124Z,86.08
2023-01-28T22:04:40.021Z,86.01
2023-01-28T22:07:13.195Z,85.88
2023-01-28T22:09:42.382Z,85.86
2023-01-28T22:12:10.871Z,86.00
2023-01-28T22:14:39.491Z,85.84
2023-01-28T22:17:11.029Z,85.78
2023-01-28T22:19:39.676Z,85.66
2023-01-28T22:22:07.900Z,85.64
2023-01-28T22:24:35.846Z,85.71
2023-01-28T22:27:03.855Z,85.62
2023-01-28T22:29:31.859Z,85.69
2023-01-28T22:32:00.509Z,85.55
2023-01-28T22:34:28.359Z,85.55
2023-01-28T22:36:56.318Z,85.47
2023-01-28T22:39:24.507Z,86.36
2023-01-28T22:41:52.506Z,90.86
2023-01-28T22:44:20.345Z,91.41
2023-01-28T22:46:48.341Z,90.38
2023-01-28T22:49:16.253Z,87.85
2023-01-28T22:51:44.169Z,85.97
2023-01-28T22:54:14.740Z,85.43
2023-01-28T22:56:42.762Z,85.19
2023-01-28T22:59:11.852Z,85.08
2023-01-28T23:01:40.378Z,84.96
2023-01-28T23:04:08.391Z,85.07
2023-01-28T23:06:37.445Z,85.04
2023-01-28T23:09:05.410Z,84.84
2023-01-28T23:11:33.368Z,84.93
2023-01-28T23:14:21.943Z,84.89
2023-01-28T23:17:09.166Z,84.75
2023-01-28T23:19:55.514Z,84.64
2023-01-28T23:22:52.418Z,84.54
2023-01-28T23:25:22.729Z,84.58
2023-01-28T23:27:50.874Z,84.65
2023-01-28T23:30:24.972Z,84.66
2023-01-28T23:32:57.699Z,84.54
2023-01-28T23:35:25.923Z,84.72
2023-01-28T23:37:54.926Z,84.63
2023-01-28T23:40:24.594Z,84.56
2023-01-28T23:42:53.763Z,84.63
2023-01-28T23:45:22.260Z,84.58
2023-01-28T23:47:50.245Z,84.49
2023-01-28T23:50:18.486Z,84.26
2023-01-28T23:52:46.542Z,84.36
2023-01-28T23:55:15.903Z,84.35
2023-01-28T23:57:43.721Z,84.32
